Terminal Aerodrome Forecast
Issued by NWS

Home | Current Version | Previous Version | Text Only | Print | Product List | Glossary On
Versions: 1 2 3 4 5 6 7 8 9 10 11 12 13 14 15 16
000
FTUS46 KPDT 310500
TAFDLS
TAF
KDLS 310520Z 3106/0106 29012KT P6SM SKC
     FM311700 31015KT P6SM SKC
     FM312000 31020G30KT P6SM FEW080 SCT250
     FM010300 29012KT P6SM FEW150=

USA.gov is the U.S. government's official web portal to all federal, state and local government web resources and services.